Terminal Aerodrome Forecast
Issued by NWS Sioux Falls, SD

Home | Current Version | Previous Version | Graphics & Text | Print | Product List | Glossary On
Versions: 1 2 3 4 5 6 7 8 9 10 11 12 13
000
FTUS43 KFSD 150533
TAFFSD
TAF
KFSD 150533Z 1506/1606 16013G18KT P6SM SCT250
     FM151600 15017G25KT P6SM BKN150
     FM160000 16013KT P6SM OVC040=

USA.gov is the U.S. government's official web portal to all federal, state and local government web resources and services.